createdAt,value
2023-11-28T00:01:40.314Z,94638.77
2023-11-28T00:04:07.214Z,94627.76
2023-11-28T00:06:34.543Z,94614.20
2023-11-28T00:09:01.499Z,94609.33
2023-11-28T00:11:28.323Z,94608.47
2023-11-28T00:13:55.301Z,94604.48
2023-11-28T00:16:22.161Z,94594.38
2023-11-28T00:18:49.636Z,94589.38
2023-11-28T00:21:16.597Z,94584.08
2023-11-28T00:23:44.008Z,94575.23
2023-11-28T00:26:11.099Z,94569.71
2023-11-28T00:28:43.362Z,94561.11
2023-11-28T00:31:10.576Z,94559.58
2023-11-28T00:33:37.659Z,94565.48
2023-11-28T00:36:04.832Z,94564.14
2023-11-28T00:38:32.020Z,94563.30
2023-11-28T00:40:58.884Z,94563.35
2023-11-28T00:43:25.839Z,94567.14
2023-11-28T00:45:52.769Z,94560.20
2023-11-28T00:48:20.579Z,94537.86
2023-11-28T00:50:47.497Z,94536.02
2023-11-28T00:53:14.264Z,94538.98
2023-11-28T00:55:41.230Z,94547.73
2023-11-28T00:58:11.347Z,94544.15
2023-11-28T01:00:41.278Z,94540.67
2023-11-28T01:03:08.399Z,94544.42
2023-11-28T01:05:35.303Z,94530.25
2023-11-28T01:08:02.188Z,94520.77
2023-11-28T01:10:29.142Z,94515.64
2023-11-28T01:12:56.075Z,94516.57
2023-11-28T01:15:23.636Z,94528.15
2023-11-28T01:17:50.652Z,94519.92
2023-11-28T01:20:17.516Z,94504.52
2023-11-28T01:22:44.569Z,94509.25
2023-11-28T01:25:11.903Z,94514.61
2023-11-28T01:27:39.339Z,94509.20
2023-11-28T01:30:07.394Z,94507.03
2023-11-28T01:32:34.841Z,94515.45
2023-11-28T01:35:02.882Z,94487.02
2023-11-28T01:37:29.757Z,94490.02
2023-11-28T01:39:57.298Z,94483.44
2023-11-28T01:42:24.118Z,94492.38
2023-11-28T01:44:51.102Z,94493.85
2023-11-28T01:47:18.054Z,94472.27
2023-11-28T01:49:45.247Z,94459.94
2023-11-28T01:52:12.779Z,94476.52
2023-11-28T01:54:42.653Z,94469.02
2023-11-28T01:57:11.009Z,94454.80
2023-11-28T01:59:39.547Z,94450.63
2023-11-28T02:02:08.822Z,94454.81
2023-11-28T02:04:36.136Z,94457.86
2023-11-28T02:07:03.494Z,94441.67
2023-11-28T02:09:30.984Z,94434.39
2023-11-28T02:11:58.670Z,94439.37
2023-11-28T02:14:25.616Z,94453.55
2023-11-28T02:16:54.464Z,94455.08
2023-11-28T02:19:21.574Z,94434.38
2023-11-28T02:21:49.987Z,94427.40
2023-11-28T02:24:18.976Z,94432.48
2023-11-28T02:26:46.016Z,94429.85
2023-11-28T02:29:13.086Z,94405.48
2023-11-28T02:31:40.077Z,94388.58
2023-11-28T02:34:07.241Z,94407.69
2023-11-28T02:36:34.257Z,94421.54
2023-11-28T02:39:01.137Z,94404.09
2023-11-28T02:41:28.046Z,94399.16
2023-11-28T02:43:54.877Z,94393.11
2023-11-28T02:46:21.990Z,94405.54
2023-11-28T02:48:49.112Z,94405.20
2023-11-28T02:51:21.487Z,94400.95
2023-11-28T02:53:48.732Z,94405.37
2023-11-28T02:56:15.659Z,94398.95
2023-11-28T02:58:42.650Z,94388.70
2023-11-28T03:01:09.704Z,94391.47
2023-11-28T03:03:36.827Z,94382.21
2023-11-28T03:06:04.526Z,94388.54
2023-11-28T03:08:31.411Z,94379.65
2023-11-28T03:10:58.322Z,94374.98
2023-11-28T03:13:25.236Z,94380.19
2023-11-28T03:15:53.773Z,94370.98
2023-11-28T03:18:20.638Z,94370.73
2023-11-28T03:20:47.546Z,94376.86
2023-11-28T03:23:14.378Z,94357.98
2023-11-28T03:25:41.239Z,94360.88
2023-11-28T03:28:08.164Z,94355.15
2023-11-28T03:30:34.972Z,94342.98
2023-11-28T03:33:01.855Z,94344.48
2023-11-28T03:35:30.120Z,94328.41
2023-11-28T03:37:58.651Z,94333.45
2023-11-28T03:40:25.642Z,94336.67
2023-11-28T03:42:52.905Z,94342.52
2023-11-28T03:45:19.757Z,94330.46
2023-11-28T03:47:47.525Z,94333.06
2023-11-28T03:50:14.500Z,94321.46
2023-11-28T03:52:42.819Z,94331.54
2023-11-28T03:55:11.506Z,94322.26
2023-11-28T03:57:38.712Z,94329.87
2023-11-28T04:00:06.786Z,94333.65
2023-11-28T04:02:33.883Z,94318.15
2023-11-28T04:05:06.072Z,94326.70
2023-11-28T04:07:33.311Z,94316.95
2023-11-28T04:10:00.646Z,94312.54
2023-11-28T04:12:27.737Z,94309.90
2023-11-28T04:14:54.550Z,94308.42
2023-11-28T04:17:21.673Z,94308.65
2023-11-28T04:19:48.676Z,94302.49
2023-11-28T04:22:15.520Z,94290.21
2023-11-28T04:24:45.489Z,94291.30
2023-11-28T04:27:14.381Z,94294.46
2023-11-28T04:29:42.632Z,94292.87
2023-11-28T04:32:13.159Z,94290.48
2023-11-28T04:34:40.213Z,94292.16
2023-11-28T04:37:07.444Z,94278.61
2023-11-28T04:39:37.582Z,94277.99
2023-11-28T04:42:04.647Z,94261.80
2023-11-28T04:44:31.446Z,94268.69
2023-11-28T04:46:58.562Z,94257.06
2023-11-28T04:49:25.540Z,94251.43
2023-11-28T04:51:52.967Z,94235.38
2023-11-28T04:54:22.009Z,94248.11
2023-11-28T04:56:48.986Z,94237.90
2023-11-28T04:59:16.152Z,94241.22
2023-11-28T05:01:46.900Z,94236.19
2023-11-28T05:04:15.010Z,94230.66
2023-11-28T05:06:42.178Z,94236.90
2023-11-28T05:09:10.026Z,94234.15
2023-11-28T05:11:36.930Z,94243.57
2023-11-28T05:14:05.101Z,94239.05
2023-11-28T05:16:41.526Z,94229.57
2023-11-28T05:19:16.544Z,94229.39
2023-11-28T05:21:43.546Z,94220.77
2023-11-28T05:24:10.902Z,94213.09
2023-11-28T05:26:37.891Z,94210.52
2023-11-28T05:29:05.024Z,94210.80
2023-11-28T05:31:31.988Z,94216.75
2023-11-28T05:33:58.995Z,94218.46
2023-11-28T05:36:27.734Z,94229.39
2023-11-28T05:38:57.061Z,94218.60
2023-11-28T05:41:25.054Z,94206.81
2023-11-28T05:43:52.626Z,94192.20
2023-11-28T05:46:19.648Z,94177.11
2023-11-28T05:48:46.846Z,94174.61
2023-11-28T05:51:14.947Z,94178.48
2023-11-28T05:53:42.688Z,94170.75
2023-11-28T05:56:11.830Z,94170.88
2023-11-28T05:58:39.063Z,94173.30
2023-11-28T06:01:09.118Z,94153.60
2023-11-28T06:03:36.340Z,94132.88
2023-11-28T06:06:04.108Z,94141.34
2023-11-28T06:09:03.699Z,94132.14
2023-11-28T06:11:30.615Z,94131.50
2023-11-28T06:13:58.909Z,94124.76
2023-11-28T06:16:26.001Z,94124.89
2023-11-28T06:18:53.126Z,94120.73
2023-11-28T06:21:20.156Z,94120.49
2023-11-28T06:23:47.152Z,94121.66
2023-11-28T06:26:14.097Z,94098.75
2023-11-28T06:28:42.033Z,94086.85
2023-11-28T06:31:09.151Z,94086.46
2023-11-28T06:33:36.132Z,94078.85
2023-11-28T06:36:04.170Z,94062.69
2023-11-28T06:38:31.295Z,94051.41
2023-11-28T06:40:58.323Z,94064.05
2023-11-28T06:43:25.334Z,94074.41
2023-11-28T06:45:53.771Z,94080.30
2023-11-28T06:48:20.787Z,94066.27
2023-11-28T06:50:47.614Z,94081.30
2023-11-28T06:53:14.737Z,94081.65
2023-11-28T06:55:42.428Z,94060.08
2023-11-28T06:58:09.274Z,94038.12
2023-11-28T07:00:36.752Z,94043.94
2023-11-28T07:03:07.424Z,94050.74
2023-11-28T07:05:34.356Z,94067.21
2023-11-28T07:08:02.346Z,94035.50
2023-11-28T07:10:29.818Z,94049.94
2023-11-28T07:13:01.468Z,94053.67
2023-11-28T07:15:28.585Z,94025.36
2023-11-28T07:17:56.049Z,94021.99
2023-11-28T07:20:23.104Z,94010.98
2023-11-28T07:22:49.967Z,94012.77
2023-11-28T07:25:17.683Z,94009.40
2023-11-28T07:27:44.719Z,94003.66
2023-11-28T07:30:12.400Z,93996.23
2023-11-28T07:32:39.356Z,93989.59
2023-11-28T07:35:07.220Z,93967.63
2023-11-28T07:37:34.190Z,93982.89
2023-11-28T07:40:01.274Z,93994.42
2023-11-28T07:42:28.652Z,93994.25
2023-11-28T07:44:55.759Z,93974.06
2023-11-28T07:47:22.794Z,93954.74
2023-11-28T07:49:50.136Z,93936.30
2023-11-28T07:55:55.775Z,93946.27
2023-11-28T07:58:39.985Z,93937.48
2023-11-28T08:01:07.038Z,93948.27
2023-11-28T08:03:34.009Z,93926.48
2023-11-28T08:06:04.181Z,93921.98
2023-11-28T08:08:31.869Z,93932.89
2023-11-28T08:11:00.701Z,93917.08
2023-11-28T08:13:29.387Z,93928.26
2023-11-28T08:15:59.484Z,93938.49
2023-11-28T08:18:27.126Z,93932.56
2023-11-28T08:20:54.125Z,93924.34
2023-11-28T08:23:21.051Z,93934.80
2023-11-28T08:25:48.245Z,93922.35
2023-11-28T08:28:15.354Z,93919.69
2023-11-28T08:30:50.267Z,93917.48
2023-11-28T08:33:20.282Z,93890.73
2023-11-28T08:35:49.826Z,93900.46
2023-11-28T08:38:17.169Z,93873.63
2023-11-28T08:40:44.401Z,93889.59
2023-11-28T08:43:11.462Z,93901.85
2023-11-28T08:45:38.675Z,93890.88
2023-11-28T08:48:05.944Z,93883.33
2023-11-28T08:50:33.006Z,93868.14
2023-11-28T08:53:00.018Z,93867.67
2023-11-28T08:55:26.838Z,93873.69
2023-11-28T08:57:53.644Z,93871.43
2023-11-28T09:00:21.159Z,93859.69
2023-11-28T09:02:48.213Z,93864.16
2023-11-28T09:05:16.271Z,93855.11
2023-11-28T09:07:43.218Z,93843.75
2023-11-28T09:10:10.397Z,93841.40
2023-11-28T09:12:37.490Z,93834.81
2023-11-28T09:15:05.647Z,93836.28
2023-11-28T09:17:35.959Z,93830.20
2023-11-28T09:20:03.231Z,93824.70
2023-11-28T09:22:30.176Z,93814.20
2023-11-28T09:24:57.048Z,93816.77
2023-11-28T09:27:24.010Z,93809.92
2023-11-28T09:29:52.694Z,93802.92
2023-11-28T09:32:21.602Z,93786.82
2023-11-28T09:34:48.525Z,93796.42
2023-11-28T09:37:15.498Z,93794.40
2023-11-28T09:39:42.941Z,93786.44
2023-11-28T09:42:13.983Z,93787.63
2023-11-28T09:44:46.860Z,93766.91
2023-11-28T09:47:17.350Z,93767.77
2023-11-28T09:49:44.578Z,93754.38
2023-11-28T09:52:14.949Z,93749.64
2023-11-28T09:54:42.084Z,93749.13
2023-11-28T09:57:10.218Z,93744.09
2023-11-28T09:59:45.068Z,93731.25
2023-11-28T10:02:16.207Z,93718.92
2023-11-28T10:04:43.697Z,93719.41
2023-11-28T10:07:12.907Z,93714.89
2023-11-28T10:09:48.152Z,93703.63
2023-11-28T10:12:17.195Z,93689.31
2023-11-28T10:14:47.868Z,93688.92
2023-11-28T10:17:17.104Z,93681.86
2023-11-28T10:19:46.296Z,93677.15
2023-11-28T10:22:16.679Z,93667.77
2023-11-28T10:24:43.695Z,93661.70
2023-11-28T10:27:14.208Z,93657.23
2023-11-28T10:29:40.986Z,93649.30
2023-11-28T10:32:08.443Z,93640.15
2023-11-28T10:34:38.134Z,93633.25
2023-11-28T10:37:05.190Z,93616.38
2023-11-28T10:39:33.560Z,93619.11
2023-11-28T10:42:04.516Z,93612.44
2023-11-28T10:44:31.724Z,93593.15
2023-11-28T10:47:00.528Z,93586.20
2023-11-28T10:49:27.543Z,93581.01
2023-11-28T10:51:57.435Z,93579.26
2023-11-28T10:54:26.857Z,93561.05
2023-11-28T10:56:58.055Z,93554.23
2023-11-28T10:59:38.553Z,93535.48
2023-11-28T11:02:06.340Z,93533.99
2023-11-28T11:04:34.090Z,93521.77
2023-11-28T11:07:01.745Z,93507.94
2023-11-28T11:09:29.372Z,93514.91
2023-11-28T11:11:57.999Z,93510.20
2023-11-28T11:14:53.585Z,93511.02
2023-11-28T11:17:32.669Z,93499.19
2023-11-28T11:20:01.368Z,93504.27
2023-11-28T11:22:33.958Z,93497.09
2023-11-28T11:25:01.795Z,93492.70
2023-11-28T11:27:29.850Z,93485.79
2023-11-28T11:29:57.066Z,93470.92
2023-11-28T11:32:24.901Z,93443.46
2023-11-28T11:34:54.751Z,93452.88
2023-11-28T11:37:30.030Z,93429.27
2023-11-28T11:40:00.835Z,93406.41
2023-11-28T11:42:30.022Z,93405.55
2023-11-28T11:45:04.168Z,93412.24
2023-11-28T11:47:33.483Z,93417.07
2023-11-28T11:50:06.574Z,93414.88
2023-11-28T11:52:34.893Z,93411.86
2023-11-28T11:55:04.771Z,93394.91
2023-11-28T11:57:31.820Z,93374.11
2023-11-28T12:00:00.039Z,93373.36
2023-11-28T12:02:40.188Z,93372.11
2023-11-28T12:05:08.718Z,93378.81
2023-11-28T12:07:35.972Z,93367.59
2023-11-28T12:10:11.282Z,93355.33
2023-11-28T12:12:40.840Z,93358.81
2023-11-28T12:15:09.495Z,93368.44
2023-11-28T12:17:38.618Z,93359.43
2023-11-28T12:20:09.314Z,93347.28
2023-11-28T12:22:36.627Z,93349.21
2023-11-28T12:25:03.746Z,93329.95
2023-11-28T12:27:31.184Z,93331.30
2023-11-28T12:29:59.993Z,93314.20
2023-11-28T12:32:30.346Z,93300.28
2023-11-28T12:34:58.362Z,93294.67
2023-11-28T12:37:25.463Z,93284.55
2023-11-28T12:39:55.904Z,93262.98
2023-11-28T12:42:26.920Z,93262.02
2023-11-28T12:45:02.277Z,93283.00
2023-11-28T12:47:29.477Z,93266.85
2023-11-28T12:49:57.094Z,93256.50
2023-11-28T12:52:27.281Z,93264.86
2023-11-28T12:54:54.157Z,93273.95
2023-11-28T12:57:22.669Z,93243.38
2023-11-28T12:59:55.922Z,93257.38
2023-11-28T13:02:27.800Z,93228.34
2023-11-28T13:04:57.506Z,93244.23
2023-11-28T13:07:33.129Z,93220.98
2023-11-28T13:10:06.333Z,93254.10
2023-11-28T13:12:33.228Z,93236.64
2023-11-28T13:15:05.932Z,93220.11
2023-11-28T13:17:33.129Z,93225.17
2023-11-28T13:20:00.275Z,93227.44
2023-11-28T13:22:28.164Z,93228.04
2023-11-28T13:24:55.331Z,93210.38
2023-11-28T13:27:22.282Z,93212.50
2023-11-28T13:29:51.798Z,93217.73
2023-11-28T13:32:18.768Z,93225.29
2023-11-28T13:34:46.655Z,93233.20
2023-11-28T13:37:14.224Z,93221.73
2023-11-28T13:39:44.302Z,93229.84
2023-11-28T13:42:14.192Z,93232.56
2023-11-28T13:44:41.247Z,93232.69
2023-11-28T13:47:08.630Z,93210.33
2023-11-28T13:49:35.791Z,93206.38
2023-11-28T13:52:02.806Z,93209.69
2023-11-28T13:54:29.894Z,93214.66
2023-11-28T13:56:57.328Z,93225.64
2023-11-28T13:59:24.345Z,93214.55
2023-11-28T14:01:51.604Z,93237.73
2023-11-28T14:04:18.579Z,93214.18
2023-11-28T14:06:45.537Z,93216.34
2023-11-28T14:09:13.883Z,93215.79
2023-11-28T14:11:40.865Z,93222.92
2023-11-28T14:14:09.290Z,93218.00
2023-11-28T14:16:36.400Z,93217.86
2023-11-28T14:19:03.327Z,93198.73
2023-11-28T14:21:31.346Z,93200.04
2023-11-28T14:23:58.239Z,93199.30
2023-11-28T14:26:25.810Z,93185.08
2023-11-28T14:28:55.160Z,93171.52
2023-11-28T14:31:25.074Z,93163.00
2023-11-28T14:33:55.162Z,93162.59
2023-11-28T14:36:22.117Z,93181.65
2023-11-28T14:38:49.172Z,93171.30
2023-11-28T14:41:16.308Z,93180.34
2023-11-28T14:43:43.238Z,93169.52
2023-11-28T14:46:10.728Z,93158.93
2023-11-28T14:48:41.496Z,93164.94
2023-11-28T14:51:20.830Z,93164.69
2023-11-28T14:53:49.382Z,93170.16
2023-11-28T14:56:16.410Z,93162.77
2023-11-28T14:58:43.385Z,93153.81
2023-11-28T15:01:10.405Z,93148.62
2023-11-28T15:03:37.711Z,93137.75
2023-11-28T15:06:08.323Z,93139.86
2023-11-28T15:08:40.485Z,93134.96
2023-11-28T15:11:10.444Z,93134.52
2023-11-28T15:13:39.772Z,93137.40
2023-11-28T15:16:07.686Z,93134.77
2023-11-28T15:18:34.818Z,93139.58
2023-11-28T15:21:02.446Z,93139.50
2023-11-28T15:23:29.585Z,93150.66
2023-11-28T15:25:56.733Z,93148.90
2023-11-28T15:28:23.791Z,93139.15
2023-11-28T15:30:51.804Z,93129.46
2023-11-28T15:33:19.132Z,93113.58
2023-11-28T15:35:46.207Z,93118.35
2023-11-28T15:38:13.291Z,93128.63
2023-11-28T15:40:42.594Z,93136.38
2023-11-28T15:43:09.876Z,93133.09
2023-11-28T15:45:36.948Z,93128.64
2023-11-28T15:48:05.795Z,93121.75
2023-11-28T15:50:34.873Z,93120.92
2023-11-28T15:53:02.074Z,93110.36
2023-11-28T15:55:29.027Z,93105.46
2023-11-28T15:57:56.970Z,93111.84
2023-11-28T16:00:24.100Z,93094.06
2023-11-28T16:02:53.777Z,93087.99
2023-11-28T16:05:21.774Z,93104.77
2023-11-28T16:07:51.690Z,93098.15
2023-11-28T16:10:18.680Z,93113.77
2023-11-28T16:12:45.755Z,93113.77
2023-11-28T16:15:13.456Z,93114.54
2023-11-28T16:17:41.641Z,93111.96
2023-11-28T16:20:11.062Z,93122.08
2023-11-28T16:22:42.216Z,93119.40
2023-11-28T16:25:09.719Z,93115.19
2023-11-28T16:27:39.783Z,93124.69
2023-11-28T16:30:08.100Z,93132.52
2023-11-28T16:32:38.145Z,93115.98
2023-11-28T16:35:06.049Z,93120.63
2023-11-28T16:37:33.204Z,93112.73
2023-11-28T16:40:02.681Z,93111.00
2023-11-28T16:42:30.160Z,93092.66
2023-11-28T16:45:02.696Z,93093.52
2023-11-28T16:47:30.867Z,93087.06
2023-11-28T16:49:57.798Z,93091.23
2023-11-28T16:52:33.775Z,93081.19
2023-11-28T16:55:00.741Z,93094.16
2023-11-28T16:57:27.710Z,93106.33
2023-11-28T16:59:55.035Z,93112.96
2023-11-28T17:02:22.466Z,93101.09
2023-11-28T17:04:54.430Z,93087.16
2023-11-28T17:07:25.847Z,93079.20
2023-11-28T17:09:54.786Z,93093.25
2023-11-28T17:12:34.913Z,93082.06
2023-11-28T17:15:05.587Z,93095.27
2023-11-28T17:17:37.762Z,93097.45
2023-11-28T17:20:13.533Z,93099.90
2023-11-28T17:22:48.830Z,93088.48
2023-11-28T17:25:28.379Z,93092.62
2023-11-28T17:28:07.970Z,93082.81
2023-11-28T17:30:35.560Z,93085.02
2023-11-28T17:33:20.840Z,93116.46
2023-11-28T17:35:56.448Z,93110.86
2023-11-28T17:38:32.051Z,93104.11
2023-11-28T17:41:18.106Z,93135.77
2023-11-28T17:43:52.476Z,93138.09
2023-11-28T17:46:58.157Z,93125.67
2023-11-28T17:49:33.126Z,93128.73
2023-11-28T17:52:12.050Z,93113.38
2023-11-28T17:54:39.165Z,93124.27
2023-11-28T17:57:12.822Z,93132.70
2023-11-28T17:59:44.973Z,93124.77
2023-11-28T18:02:19.225Z,93142.50
2023-11-28T18:04:46.418Z,93132.98
2023-11-28T18:07:19.005Z,93148.24
2023-11-28T18:09:55.436Z,93151.25
2023-11-28T18:12:31.565Z,93157.85
2023-11-28T18:15:03.219Z,93147.93
2023-11-28T18:20:49.708Z,93114.64
2023-11-28T18:23:30.334Z,93109.42
2023-11-28T18:26:12.415Z,93111.06
2023-11-28T18:28:52.553Z,93111.55
2023-11-28T18:31:24.937Z,93107.02
2023-11-28T18:33:55.894Z,93107.61
2023-11-28T18:36:24.992Z,93124.63
2023-11-28T18:38:58.121Z,93133.14
2023-11-28T18:41:34.441Z,93144.19
2023-11-28T18:44:15.551Z,93141.38
2023-11-28T18:46:42.959Z,93148.41
2023-11-28T18:49:09.873Z,93142.48
2023-11-28T18:51:40.463Z,93161.49
2023-11-28T18:54:12.108Z,93179.31
2023-11-28T18:56:42.201Z,93190.73
2023-11-28T18:59:20.299Z,93205.27
2023-11-28T19:01:53.189Z,93215.23
2023-11-28T19:04:23.266Z,93223.71
2023-11-28T19:06:51.996Z,93213.06
2023-11-28T19:09:27.863Z,93211.23
2023-11-28T19:12:05.268Z,93206.72
2023-11-28T19:14:38.600Z,93211.70
2023-11-28T19:19:54.708Z,93212.89
2023-11-28T19:22:28.306Z,93220.95
2023-11-28T19:24:59.463Z,93228.11
2023-11-28T19:27:57.350Z,93232.27
2023-11-28T19:30:49.505Z,93243.84
2023-11-28T19:33:35.224Z,93248.61
2023-11-28T19:36:21.403Z,93255.15
2023-11-28T19:39:13.819Z,93254.12
2023-11-28T19:41:43.972Z,93263.38
2023-11-28T19:44:13.824Z,93267.87
2023-11-28T19:46:42.679Z,93271.80
2023-11-28T19:49:11.222Z,93280.41
2023-11-28T19:51:40.482Z,93283.24
2023-11-28T19:54:07.442Z,93283.82
2023-11-28T19:56:34.452Z,93290.50
2023-11-28T19:59:03.567Z,93296.21
2023-11-28T20:01:30.861Z,93300.09
2023-11-28T20:03:58.249Z,93302.33
2023-11-28T20:06:25.986Z,93295.68
2023-11-28T20:08:56.341Z,93279.43
2023-11-28T20:11:23.381Z,93272.55
2023-11-28T20:13:50.373Z,93280.04
2023-11-28T20:16:17.225Z,93278.86
2023-11-28T20:18:44.130Z,93270.33
2023-11-28T20:21:11.114Z,93265.95
2023-11-28T20:23:42.550Z,93265.59
2023-11-28T20:26:09.455Z,93268.11
2023-11-28T20:28:36.508Z,93275.52
2023-11-28T20:31:03.563Z,93275.65
2023-11-28T20:33:38.815Z,93271.05
2023-11-28T20:36:08.487Z,93277.95
2023-11-28T20:38:36.027Z,93286.15
2023-11-28T20:41:04.780Z,93286.35
2023-11-28T20:43:31.690Z,93291.89
2023-11-28T20:45:58.965Z,93288.37
2023-11-28T20:48:25.932Z,93290.27
2023-11-28T20:50:53.087Z,93295.13
2023-11-28T20:53:21.294Z,93295.75
2023-11-28T20:55:48.223Z,93309.58
2023-11-28T20:58:15.525Z,93310.18
2023-11-28T21:00:42.441Z,93312.78
2023-11-28T21:03:09.470Z,93323.96
2023-11-28T21:05:36.567Z,93324.58
2023-11-28T21:08:05.278Z,93326.05
2023-11-28T21:10:34.384Z,93330.78
2023-11-28T21:13:01.531Z,93331.13
2023-11-28T21:15:28.376Z,93329.69
2023-11-28T21:17:55.454Z,93333.89
2023-11-28T21:20:22.500Z,93346.39
2023-11-28T21:22:52.752Z,93351.40
2023-11-28T21:25:22.165Z,93363.02
2023-11-28T21:27:50.635Z,93370.52
2023-11-28T21:30:22.885Z,93378.41
2023-11-28T21:32:50.172Z,93383.48
2023-11-28T21:35:17.421Z,93393.80
2023-11-28T21:37:45.083Z,93394.18
2023-11-28T21:40:12.269Z,93396.92
2023-11-28T21:42:39.663Z,93401.08
2023-11-28T21:45:06.942Z,93402.38
2023-11-28T21:47:36.675Z,93403.12
2023-11-28T21:50:10.907Z,93406.39
2023-11-28T21:52:39.743Z,93406.26
2023-11-28T21:55:07.601Z,93403.20
2023-11-28T21:57:34.817Z,93412.55
2023-11-28T22:00:01.732Z,93417.17
2023-11-28T22:02:38.896Z,93421.41
2023-11-28T22:05:05.815Z,93423.80
2023-11-28T22:07:32.824Z,93423.30
2023-11-28T22:09:59.560Z,93422.76
2023-11-28T22:12:26.472Z,93424.46
2023-11-28T22:14:53.337Z,93428.64
2023-11-28T22:17:20.739Z,93426.41
2023-11-28T22:19:47.596Z,93415.70
2023-11-28T22:22:14.495Z,93422.98
2023-11-28T22:24:41.404Z,93423.92
2023-11-28T22:27:09.233Z,93419.20
2023-11-28T22:29:38.927Z,93417.46
2023-11-28T22:32:05.980Z,93422.22
2023-11-28T22:34:32.822Z,93425.37
2023-11-28T22:36:59.799Z,93430.95
2023-11-28T22:39:26.762Z,93430.05
2023-11-28T22:41:53.718Z,93438.41
2023-11-28T22:44:20.664Z,93435.75
2023-11-28T22:46:47.533Z,93441.80
2023-11-28T22:49:14.364Z,93447.45
2023-11-28T22:51:41.308Z,93452.47
2023-11-28T22:54:08.307Z,93458.61
2023-11-28T22:56:35.955Z,93460.14
2023-11-28T22:59:16.103Z,93467.00
2023-11-28T23:01:44.317Z,93474.77
2023-11-28T23:04:11.400Z,93477.66
2023-11-28T23:06:38.430Z,93484.35
2023-11-28T23:09:05.907Z,93482.40
2023-11-28T23:11:33.844Z,93484.80
2023-11-28T23:14:02.171Z,93493.52
2023-11-28T23:16:29.269Z,93497.36
2023-11-28T23:18:56.282Z,93495.38
2023-11-28T23:21:23.493Z,93498.95
2023-11-28T23:23:50.409Z,93505.09
2023-11-28T23:26:18.354Z,93498.10
2023-11-28T23:28:45.470Z,93499.19
2023-11-28T23:31:12.849Z,93498.45
2023-11-28T23:33:39.714Z,93500.12
2023-11-28T23:36:07.022Z,93507.16
2023-11-28T23:38:33.988Z,93516.19
2023-11-28T23:41:00.964Z,93525.92
2023-11-28T23:43:27.780Z,93530.38
2023-11-28T23:45:54.868Z,93536.74
2023-11-28T23:48:22.039Z,93550.44
2023-11-28T23:50:51.799Z,93549.91
2023-11-28T23:53:18.868Z,93555.31
2023-11-28T23:55:45.675Z,93559.98
2023-11-28T23:58:12.706Z,93569.20
